Time;durP1;ratioP1;P1;durP2;ratioP2;P2;SDS_P1;SDS_P2;PMS_P1;PMS_P2;Temp;Humidity;BMP_temperature;BMP_pressure;BME280_temperature;BME280_humidity;BME280_pressure;Samples;Min_cycle;Max_cycle;Signal;HPM_P1;HPM_P2
2023/06/17 00:04:07;;;;;;;;;;;22.00;54.10;;;;;;10287325;28;888;-70
2023/06/17 00:09:03;;;;;;;;;;;22.00;54.20;;;;;;10287241;28;943;-70
2023/06/17 00:14:00;;;;;;;;;;;22.00;54.10;;;;;;10286844;28;1915;-70
2023/06/17 00:18:56;;;;;;;;;;;22.00;54.10;;;;;;10286734;28;1105;-71
2023/06/17 00:23:52;;;;;;;;;;;22.00;54.10;;;;;;10287125;28;852;-70
2023/06/17 00:28:47;;;;;;;;;;;22.00;54.00;;;;;;10286351;28;960;-70
2023/06/17 00:33:43;;;;;;;;;;;22.00;54.10;;;;;;10286800;28;1922;-70
2023/06/17 00:38:38;;;;;;;;;;;22.00;54.10;;;;;;10286778;28;850;-70
2023/06/17 00:43:33;;;;;;;;;;;22.00;54.10;;;;;;10285805;28;1137;-70
2023/06/17 00:48:29;;;;;;;;;;;22.00;54.10;;;;;;10285689;28;822;-70
2023/06/17 00:53:25;;;;;;;;;;;22.00;54.10;;;;;;10286042;28;1892;-70
2023/06/17 00:58:20;;;;;;;;;;;22.00;54.70;;;;;;10285722;28;833;-70
2023/06/17 01:03:17;;;;;;;;;;;22.00;54.10;;;;;;10285173;28;899;-70
2023/06/17 01:08:12;;;;;;;;;;;22.00;54.10;;;;;;10285679;28;866;-70
2023/06/17 01:13:08;;;;;;;;;;;21.90;54.10;;;;;;10284855;28;1910;-70
2023/06/17 01:18:04;;;;;;;;;;;21.90;54.10;;;;;;10285080;28;1431;-70
2023/06/17 01:23:00;;;;;;;;;;;21.90;54.00;;;;;;10285295;28;976;-70
2023/06/17 01:27:55;;;;;;;;;;;21.90;54.00;;;;;;10283816;28;928;-70
2023/06/17 01:32:50;;;;;;;;;;;21.90;54.00;;;;;;10284448;28;1918;-70
2023/06/17 01:37:49;;;;;;;;;;;21.90;54.00;;;;;;10284773;28;825;-70
2023/06/17 01:42:45;;;;;;;;;;;21.90;54.00;;;;;;10284422;28;827;-70
2023/06/17 01:47:40;;;;;;;;;;;21.90;54.00;;;;;;10284231;28;931;-70
2023/06/17 01:52:35;;;;;;;;;;;21.90;54.00;;;;;;10284155;28;1910;-70
2023/06/17 01:57:31;;;;;;;;;;;21.90;54.00;;;;;;10284712;28;777;-70
2023/06/17 02:02:26;;;;;;;;;;;21.90;54.10;;;;;;10284584;28;814;-70
2023/06/17 02:07:24;;;;;;;;;;;21.90;54.10;;;;;;10283900;28;872;-70
2023/06/17 02:12:19;;;;;;;;;;;21.90;54.00;;;;;;10283710;28;1910;-70
2023/06/17 02:17:15;;;;;;;;;;;21.90;54.00;;;;;;10283513;28;1247;-70
2023/06/17 02:22:10;;;;;;;;;;;21.90;54.10;;;;;;10284573;28;933;-70
2023/06/17 02:27:06;;;;;;;;;;;21.90;54.00;;;;;;10283670;28;852;-70
2023/06/17 02:32:02;;;;;;;;;;;21.80;54.00;;;;;;10284025;28;820;-70
2023/06/17 02:36:57;;;;;;;;;;;21.80;54.00;;;;;;10283826;28;1911;-70
2023/06/17 02:41:53;;;;;;;;;;;21.80;54.10;;;;;;10288474;28;855;-70
2023/06/17 02:46:48;;;;;;;;;;;21.80;54.10;;;;;;10290338;28;848;-70
2023/06/17 02:51:43;;;;;;;;;;;21.80;54.00;;;;;;10290856;28;875;-70
2023/06/17 02:56:39;;;;;;;;;;;21.80;54.00;;;;;;10289919;28;1902;-70
2023/06/17 03:01:39;;;;;;;;;;;21.80;54.00;;;;;;10289131;28;964;-70
2023/06/17 03:06:35;;;;;;;;;;;21.80;53.90;;;;;;10290434;28;844;-70
2023/06/17 03:11:31;;;;;;;;;;;21.80;53.90;;;;;;10289387;28;857;-70
2023/06/17 03:16:28;;;;;;;;;;;21.80;54.00;;;;;;10289152;28;1967;-70
2023/06/17 03:21:23;;;;;;;;;;;21.80;54.00;;;;;;10289374;28;1141;-70
2023/06/17 03:26:20;;;;;;;;;;;21.80;53.90;;;;;;10289461;28;770;-70
2023/06/17 03:31:20;;;;;;;;;;;21.80;53.90;;;;;;10288383;28;865;-70
2023/06/17 03:36:17;;;;;;;;;;;21.70;54.50;;;;;;10289149;28;1914;-70
2023/06/17 03:41:12;;;;;;;;;;;21.80;53.90;;;;;;10288349;28;802;-70
2023/06/17 03:46:08;;;;;;;;;;;21.70;53.80;;;;;;10288091;28;944;-70
2023/06/17 03:51:03;;;;;;;;;;;21.70;53.90;;;;;;10287604;28;947;-70
2023/06/17 03:55:59;;;;;;;;;;;21.70;53.90;;;;;;10287764;28;1898;-70
2023/06/17 04:00:54;;;;;;;;;;;21.70;53.80;;;;;;10288738;28;778;-70
2023/06/17 04:05:49;;;;;;;;;;;21.70;53.90;;;;;;10287281;28;889;-70
2023/06/17 04:10:47;;;;;;;;;;;21.70;53.90;;;;;;10287687;28;826;-70
2023/06/17 04:15:42;;;;;;;;;;;21.70;53.90;;;;;;10286862;28;1906;-70
2023/06/17 04:20:40;;;;;;;;;;;21.60;53.90;;;;;;10287745;28;1262;-70
2023/06/17 04:25:36;;;;;;;;;;;21.60;53.90;;;;;;10286032;28;856;-70
2023/06/17 04:30:32;;;;;;;;;;;21.60;53.90;;;;;;10286314;28;1016;-70
2023/06/17 04:35:28;;;;;;;;;;;21.60;53.90;;;;;;10286069;28;1906;-70
2023/06/17 04:40:23;;;;;;;;;;;21.60;53.90;;;;;;10285947;28;953;-70
2023/06/17 04:45:19;;;;;;;;;;;21.60;54.00;;;;;;10286151;28;869;-70
2023/06/17 04:50:18;;;;;;;;;;;21.60;54.00;;;;;;10286253;28;915;-70
2023/06/17 04:55:13;;;;;;;;;;;21.60;54.00;;;;;;10285949;28;1894;-70
2023/06/17 05:00:10;;;;;;;;;;;21.60;54.00;;;;;;10285327;28;791;-70
2023/06/17 05:05:08;;;;;;;;;;;21.60;54.00;;;;;;10284526;28;1140;-70
2023/06/17 05:10:04;;;;;;;;;;;21.50;53.90;;;;;;10284429;28;1279;-69
2023/06/17 05:14:59;;;;;;;;;;;21.60;54.00;;;;;;10284854;28;1902;-69
2023/06/17 05:19:55;;;;;;;;;;;21.50;54.10;;;;;;10283970;28;1314;-70
2023/06/17 05:24:50;;;;;;;;;;;21.50;54.00;;;;;;10284768;28;774;-70
2023/06/17 05:29:45;;;;;;;;;;;21.50;54.00;;;;;;10283047;28;1080;-70
2023/06/17 05:34:41;;;;;;;;;;;21.50;54.00;;;;;;10283631;28;1964;-70
2023/06/17 05:39:36;;;;;;;;;;;21.50;54.00;;;;;;10284301;28;925;-70
2023/06/17 05:44:31;;;;;;;;;;;21.50;54.10;;;;;;10284111;28;850;-70
2023/06/17 05:49:27;;;;;;;;;;;21.50;54.10;;;;;;10281734;28;998;-71
2023/06/17 05:54:22;;;;;;;;;;;21.50;54.10;;;;;;10283786;28;1949;-70
2023/06/17 05:59:18;;;;;;;;;;;21.50;54.10;;;;;;10284456;28;810;-70
2023/06/17 06:04:13;;;;;;;;;;;21.60;54.50;;;;;;10283651;28;956;-70
2023/06/17 06:09:08;;;;;;;;;;;21.60;54.30;;;;;;10284324;28;773;-68
2023/06/17 06:14:04;;;;;;;;;;;21.60;54.40;;;;;;10286620;28;1909;-73
2023/06/17 06:18:59;;;;;;;;;;;21.50;54.30;;;;;;10291234;28;1155;-70
2023/06/17 06:23:55;;;;;;;;;;;21.50;54.30;;;;;;10290935;28;957;-70
2023/06/17 06:28:50;;;;;;;;;;;21.50;54.30;;;;;;10290967;28;766;-69
2023/06/17 06:33:45;;;;;;;;;;;21.50;54.40;;;;;;10290562;28;1902;-68
2023/06/17 06:38:41;;;;;;;;;;;21.50;54.40;;;;;;10290917;28;955;-68
2023/06/17 06:43:36;;;;;;;;;;;21.50;54.50;;;;;;10290869;28;862;-70
2023/06/17 06:48:32;;;;;;;;;;;21.50;54.50;;;;;;10290708;28;821;-70
2023/06/17 06:53:27;;;;;;;;;;;21.50;54.70;;;;;;10289863;28;1957;-70
2023/06/17 06:58:22;;;;;;;;;;;21.50;54.90;;;;;;10290311;28;876;-71
2023/06/17 07:03:18;;;;;;;;;;;21.50;55.00;;;;;;10289527;28;854;-70
2023/06/17 07:08:13;;;;;;;;;;;21.50;55.10;;;;;;10289875;28;992;-70
2023/06/17 07:13:09;;;;;;;;;;;21.50;55.20;;;;;;10289153;28;1898;-70
2023/06/17 07:18:04;;;;;;;;;;;21.50;55.20;;;;;;10288730;28;1275;-70
2023/06/17 07:23:00;;;;;;;;;;;21.50;55.30;;;;;;10289427;28;813;-70
2023/06/17 07:27:59;;;;;;;;;;;21.50;55.60;;;;;;10287918;28;784;-70
2023/06/17 07:32:55;;;;;;;;;;;21.50;55.70;;;;;;10288651;28;1922;-70
2023/06/17 07:37:50;;;;;;;;;;;21.50;55.70;;;;;;10288227;28;856;-71
2023/06/17 07:42:46;;;;;;;;;;;21.50;55.90;;;;;;10288574;28;878;-71
2023/06/17 07:47:41;;;;;;;;;;;21.50;55.90;;;;;;10287201;28;923;-72
2023/06/17 07:52:36;;;;;;;;;;;21.40;55.90;;;;;;10287157;28;1911;-72
2023/06/17 07:57:32;;;;;;;;;;;21.40;56.00;;;;;;10287516;28;857;-71
2023/06/17 08:02:27;;;;;;;;;;;21.40;56.00;;;;;;10287540;28;769;-72
2023/06/17 08:07:23;;;;;;;;;;;21.40;56.00;;;;;;10287723;28;881;-72
2023/06/17 08:12:18;;;;;;;;;;;21.40;56.10;;;;;;10286882;28;786;-71
2023/06/17 08:17:14;;;;;;;;;;;21.40;56.10;;;;;;10286393;28;1975;-72
2023/06/17 08:22:09;;;;;;;;;;;21.30;55.80;;;;;;10287380;28;923;-69
2023/06/17 08:27:05;;;;;;;;;;;21.40;55.70;;;;;;10286477;28;898;-71
2023/06/17 08:32:01;;;;;;;;;;;21.40;55.50;;;;;;10286239;28;871;-71
2023/06/17 08:36:57;;;;;;;;;;;21.40;55.40;;;;;;10285127;28;1910;-71
2023/06/17 08:41:53;;;;;;;;;;;21.40;56.00;;;;;;10286581;28;854;-71
2023/06/17 08:46:48;;;;;;;;;;;21.40;55.20;;;;;;10285237;28;877;-73
2023/06/17 08:51:44;;;;;;;;;;;21.40;55.00;;;;;;10286214;28;878;-71
2023/06/17 08:56:40;;;;;;;;;;;21.40;54.90;;;;;;10285384;28;1910;-71
2023/06/17 09:01:36;;;;;;;;;;;21.40;54.80;;;;;;10285982;28;779;-71
2023/06/17 09:06:31;;;;;;;;;;;21.40;54.70;;;;;;10285105;28;989;-71
2023/06/17 09:11:27;;;;;;;;;;;21.40;54.50;;;;;;10285093;28;806;-71
2023/06/17 09:16:22;;;;;;;;;;;21.30;54.30;;;;;;10284929;28;1965;-71
2023/06/17 09:21:18;;;;;;;;;;;21.40;53.40;;;;;;10284442;28;1484;-71
2023/06/17 09:26:13;;;;;;;;;;;21.40;53.60;;;;;;10284751;28;853;-72
2023/06/17 09:31:09;;;;;;;;;;;21.40;53.30;;;;;;10284601;28;829;-72
2023/06/17 09:36:04;;;;;;;;;;;21.40;53.40;;;;;;10284426;28;1910;-73
2023/06/17 09:41:00;;;;;;;;;;;21.40;53.20;;;;;;10284425;28;875;-72
2023/06/17 09:45:55;;;;;;;;;;;21.40;52.90;;;;;;10284943;28;928;-72
2023/06/17 09:50:52;;;;;;;;;;;21.40;52.40;;;;;;10290797;28;936;-71
2023/06/17 09:55:47;;;;;;;;;;;21.40;52.50;;;;;;10293022;28;1906;-70
2023/06/17 10:00:45;;;;;;;;;;;21.40;52.20;;;;;;10292805;28;829;-70
2023/06/17 10:05:41;;;;;;;;;;;21.40;52.30;;;;;;10291896;28;950;-71
2023/06/17 10:10:36;;;;;;;;;;;21.40;52.30;;;;;;10292792;28;1676;-71
2023/06/17 10:15:31;;;;;;;;;;;21.40;52.00;;;;;;10291583;28;1963;-70
2023/06/17 10:20:31;;;;;;;;;;;21.40;51.90;;;;;;10292209;28;1407;-70
2023/06/17 10:25:26;;;;;;;;;;;21.40;51.90;;;;;;10291257;28;965;-71
2023/06/17 10:30:21;;;;;;;;;;;21.40;51.90;;;;;;10291075;28;777;-71
2023/06/17 10:35:17;;;;;;;;;;;21.40;51.20;;;;;;10291402;28;1976;-71
2023/06/17 10:40:12;;;;;;;;;;;21.40;51.30;;;;;;10291331;28;857;-71
2023/06/17 10:45:08;;;;;;;;;;;21.40;50.80;;;;;;10290510;28;1572;-70
2023/06/17 10:50:05;;;;;;;;;;;21.40;51.00;;;;;;10290028;28;952;-70
2023/06/17 10:55:00;;;;;;;;;;;21.40;50.80;;;;;;10290712;28;1906;-70
2023/06/17 10:59:55;;;;;;;;;;;21.40;50.20;;;;;;10288962;28;766;-70
2023/06/17 11:04:51;;;;;;;;;;;21.40;50.20;;;;;;10289079;28;1672;-70
2023/06/17 11:09:47;;;;;;;;;;;21.50;50.00;;;;;;10289831;28;866;-70
2023/06/17 11:14:43;;;;;;;;;;;21.40;50.00;;;;;;10289491;28;1959;-70
2023/06/17 11:19:38;;;;;;;;;;;21.40;49.70;;;;;;10288732;28;1524;-70
2023/06/17 11:24:34;;;;;;;;;;;21.40;49.60;;;;;;10289662;28;936;-70
2023/06/17 11:29:29;;;;;;;;;;;21.40;49.40;;;;;;10289555;28;852;-73
2023/06/17 11:34:26;;;;;;;;;;;21.40;49.60;;;;;;10288576;28;1910;-71
2023/06/17 11:39:22;;;;;;;;;;;21.40;50.10;;;;;;10288563;28;762;-71
2023/06/17 11:44:17;;;;;;;;;;;21.40;50.10;;;;;;10288888;28;863;-71
2023/06/17 11:49:13;;;;;;;;;;;21.30;50.70;;;;;;10287248;28;972;-71
2023/06/17 11:54:09;;;;;;;;;;;21.30;50.90;;;;;;10287553;28;1898;-71
2023/06/17 11:59:04;;;;;;;;;;;21.30;51.10;;;;;;10287473;28;831;-71
2023/06/17 12:03:59;;;;;;;;;;;21.20;51.20;;;;;;10287980;28;850;-71
2023/06/17 12:08:55;;;;;;;;;;;21.20;51.10;;;;;;10287170;28;928;-71
2023/06/17 12:13:50;;;;;;;;;;;21.20;51.30;;;;;;10287158;28;1898;-71
2023/06/17 12:18:46;;;;;;;;;;;21.30;51.30;;;;;;10287182;28;1310;-72
2023/06/17 12:23:41;;;;;;;;;;;21.20;51.70;;;;;;10286382;28;883;-71
2023/06/17 12:28:37;;;;;;;;;;;21.30;51.40;;;;;;10286283;28;821;-71
2023/06/17 12:33:35;;;;;;;;;;;21.30;51.50;;;;;;10286031;28;2027;-71
2023/06/17 12:38:31;;;;;;;;;;;21.30;51.60;;;;;;10286023;28;769;-71
2023/06/17 12:43:26;;;;;;;;;;;21.30;51.60;;;;;;10285805;28;789;-71
2023/06/17 12:48:22;;;;;;;;;;;21.30;51.70;;;;;;10285863;28;928;-71
2023/06/17 12:53:17;;;;;;;;;;;21.30;51.60;;;;;;10285354;28;1906;-71
2023/06/17 12:58:13;;;;;;;;;;;21.30;51.60;;;;;;10285299;28;911;-72
2023/06/17 13:03:08;;;;;;;;;;;21.30;51.50;;;;;;10285140;28;976;-71
2023/06/17 13:08:04;;;;;;;;;;;21.30;51.60;;;;;;10284921;28;809;-71
2023/06/17 13:12:59;;;;;;;;;;;21.30;51.60;;;;;;10284766;28;1898;-70
2023/06/17 13:17:54;;;;;;;;;;;21.30;51.60;;;;;;10284451;28;1416;-71
2023/06/17 13:22:50;;;;;;;;;;;21.30;51.60;;;;;;10285263;28;873;-71
2023/06/17 13:27:45;;;;;;;;;;;21.40;51.70;;;;;;10285029;28;864;-71
2023/06/17 13:32:41;;;;;;;;;;;21.40;51.90;;;;;;10284324;28;1914;-71
2023/06/17 13:37:36;;;;;;;;;;;21.40;51.90;;;;;;10284235;28;906;-70
2023/06/17 13:42:32;;;;;;;;;;;21.40;52.00;;;;;;10284236;28;789;-71
2023/06/17 13:47:27;;;;;;;;;;;21.40;51.90;;;;;;10284165;28;989;-71
2023/06/17 13:52:23;;;;;;;;;;;21.40;52.00;;;;;;10283952;28;856;-71
2023/06/17 13:57:18;;;;;;;;;;;21.40;52.00;;;;;;10284141;28;1902;-71
2023/06/17 14:02:13;;;;;;;;;;;21.40;52.00;;;;;;10284378;28;890;-71
2023/06/17 14:07:09;;;;;;;;;;;21.40;52.10;;;;;;10283734;28;798;-72
2023/06/17 14:12:04;;;;;;;;;;;21.50;52.20;;;;;;10283568;28;873;-71
2023/06/17 14:17:00;;;;;;;;;;;21.40;52.10;;;;;;10283390;28;1965;-71
2023/06/17 14:21:55;;;;;;;;;;;21.50;52.30;;;;;;10283904;28;1151;-71
2023/06/17 14:26:50;;;;;;;;;;;21.50;52.30;;;;;;10283325;28;979;-71
2023/06/17 14:31:46;;;;;;;;;;;21.50;52.30;;;;;;10282602;28;866;-70
2023/06/17 14:36:41;;;;;;;;;;;21.50;52.30;;;;;;10288369;28;1973;-71
2023/06/17 14:41:36;;;;;;;;;;;21.50;52.40;;;;;;10291051;28;845;-71
2023/06/17 14:46:32;;;;;;;;;;;21.50;52.40;;;;;;10289757;28;928;-71
2023/06/17 14:51:27;;;;;;;;;;;21.50;52.50;;;;;;10290168;28;879;-70
2023/06/17 14:56:23;;;;;;;;;;;21.50;52.50;;;;;;10289984;28;1969;-70
2023/06/17 15:01:18;;;;;;;;;;;21.50;52.60;;;;;;10289784;28;762;-70
2023/06/17 15:06:13;;;;;;;;;;;21.60;52.70;;;;;;10290978;28;849;-70
2023/06/17 15:11:09;;;;;;;;;;;21.60;52.80;;;;;;10289938;28;905;-71
2023/06/17 15:16:04;;;;;;;;;;;21.70;52.90;;;;;;10289765;28;1906;-71
2023/06/17 15:21:00;;;;;;;;;;;21.70;53.00;;;;;;10288432;28;1461;-70
2023/06/17 15:25:55;;;;;;;;;;;21.70;53.10;;;;;;10289753;28;834;-70
2023/06/17 15:30:50;;;;;;;;;;;21.70;53.20;;;;;;10288859;28;890;-71
2023/06/17 15:35:46;;;;;;;;;;;21.70;53.20;;;;;;10287514;28;1918;-67
2023/06/17 15:40:41;;;;;;;;;;;21.70;53.20;;;;;;10287928;28;880;-70
2023/06/17 15:45:37;;;;;;;;;;;21.70;53.20;;;;;;10287947;28;844;-71
2023/06/17 15:50:32;;;;;;;;;;;21.70;53.20;;;;;;10288276;28;762;-70
2023/06/17 15:55:27;;;;;;;;;;;21.70;53.20;;;;;;10287276;28;1906;-71
2023/06/17 16:00:23;;;;;;;;;;;21.80;53.20;;;;;;10287970;28;917;-71
2023/06/17 16:05:18;;;;;;;;;;;21.80;53.30;;;;;;10286958;28;1015;-71
2023/06/17 16:10:13;;;;;;;;;;;21.80;53.20;;;;;;10287364;28;762;-71
2023/06/17 16:15:09;;;;;;;;;;;21.80;53.20;;;;;;10287070;28;1902;-71
2023/06/17 16:20:04;;;;;;;;;;;21.80;53.20;;;;;;10288133;28;1279;-71
2023/06/17 16:24:59;;;;;;;;;;;21.80;53.30;;;;;;10286780;28;790;-71
2023/06/17 16:29:55;;;;;;;;;;;21.80;53.20;;;;;;10286512;28;956;-71
2023/06/17 16:34:50;;;;;;;;;;;21.80;53.30;;;;;;10286963;28;1979;-71
2023/06/17 16:39:46;;;;;;;;;;;21.80;53.30;;;;;;10286249;28;767;-71
2023/06/17 16:44:41;;;;;;;;;;;21.90;53.30;;;;;;10286784;28;868;-71
2023/06/17 16:49:36;;;;;;;;;;;21.90;53.40;;;;;;10286559;28;948;-71
2023/06/17 16:54:32;;;;;;;;;;;21.90;53.40;;;;;;10284988;28;1883;-71
2023/06/17 16:59:27;;;;;;;;;;;21.90;53.40;;;;;;10284762;28;777;-71
2023/06/17 17:04:23;;;;;;;;;;;21.90;53.40;;;;;;10285406;28;859;-71
2023/06/17 17:09:19;;;;;;;;;;;21.90;53.40;;;;;;10284657;28;972;-71
2023/06/17 17:14:14;;;;;;;;;;;21.90;53.40;;;;;;10285014;28;1910;-72
2023/06/17 17:19:10;;;;;;;;;;;22.00;53.50;;;;;;10284428;28;1414;-71
2023/06/17 17:24:05;;;;;;;;;;;22.00;53.50;;;;;;10284850;28;793;-71
2023/06/17 17:29:02;;;;;;;;;;;22.00;53.50;;;;;;10285121;28;874;-80
2023/06/17 17:33:57;;;;;;;;;;;22.00;53.50;;;;;;10284514;28;1914;-73
2023/06/17 17:38:53;;;;;;;;;;;22.00;53.60;;;;;;10284546;28;1021;-75
2023/06/17 17:43:48;;;;;;;;;;;22.00;53.50;;;;;;10284467;28;774;-74
2023/06/17 17:48:43;;;;;;;;;;;22.00;53.50;;;;;;10283955;28;778;-74
2023/06/17 17:53:40;;;;;;;;;;;22.00;53.50;;;;;;10284787;28;1969;-73
2023/06/17 17:58:35;;;;;;;;;;;22.00;53.50;;;;;;10284873;28;806;-74
2023/06/17 18:03:31;;;;;;;;;;;22.10;53.60;;;;;;10284601;28;840;-73
2023/06/17 18:08:26;;;;;;;;;;;22.00;53.50;;;;;;10284736;28;1064;-74
2023/06/17 18:13:21;;;;;;;;;;;22.10;53.60;;;;;;10291780;28;1902;-74
2023/06/17 18:18:17;;;;;;;;;;;22.10;53.60;;;;;;10291063;28;1248;-74
2023/06/17 18:23:12;;;;;;;;;;;22.10;53.60;;;;;;10291304;28;905;-74
2023/06/17 18:28:07;;;;;;;;;;;22.10;53.50;;;;;;10291932;28;921;-74
2023/06/17 18:33:03;;;;;;;;;;;22.10;53.60;;;;;;10291006;28;1906;-74
2023/06/17 18:37:58;;;;;;;;;;;22.10;53.60;;;;;;10290977;28;789;-74
2023/06/17 18:42:54;;;;;;;;;;;22.10;53.60;;;;;;10290769;28;873;-73
2023/06/17 18:47:49;;;;;;;;;;;22.10;53.60;;;;;;10290575;28;853;-74
2023/06/17 18:52:45;;;;;;;;;;;22.10;53.60;;;;;;10290986;28;944;-74
2023/06/17 18:57:40;;;;;;;;;;;22.20;53.70;;;;;;10290182;28;1906;-73
2023/06/17 19:02:36;;;;;;;;;;;22.20;53.60;;;;;;10290025;28;900;-75
2023/06/17 19:07:31;;;;;;;;;;;22.20;53.40;;;;;;10289529;28;890;-75
2023/06/17 19:12:30;;;;;;;;;;;22.20;53.70;;;;;;10289631;28;810;-75
2023/06/17 19:17:25;;;;;;;;;;;22.20;53.70;;;;;;10289225;28;1906;-75
2023/06/17 19:22:20;;;;;;;;;;;22.20;53.60;;;;;;10288378;28;945;-75
2023/06/17 19:27:16;;;;;;;;;;;22.20;53.60;;;;;;10289702;28;774;-75
2023/06/17 19:32:11;;;;;;;;;;;22.20;53.60;;;;;;10288515;28;761;-75
2023/06/17 19:37:06;;;;;;;;;;;22.20;53.60;;;;;;10288616;28;1915;-75
2023/06/17 19:42:02;;;;;;;;;;;22.20;53.60;;;;;;10288995;28;873;-74
2023/06/17 19:46:57;;;;;;;;;;;22.20;53.60;;;;;;10287643;28;908;-74
2023/06/17 19:51:54;;;;;;;;;;;22.30;53.70;;;;;;10315858;28;1184;-74
2023/06/17 19:56:49;;;;;;;;;;;22.20;53.40;;;;;;10328414;28;1934;-74
2023/06/17 20:01:45;;;;;;;;;;;22.30;53.60;;;;;;10328409;28;858;-74
2023/06/17 20:06:40;;;;;;;;;;;22.30;53.70;;;;;;10328269;28;853;-74
2023/06/17 20:11:35;;;;;;;;;;;22.30;53.60;;;;;;10328598;28;866;-74
2023/06/17 20:16:31;;;;;;;;;;;22.30;53.70;;;;;;10327713;28;1910;-74
2023/06/17 20:21:26;;;;;;;;;;;22.30;53.70;;;;;;10328365;28;1414;-74
2023/06/17 20:26:21;;;;;;;;;;;22.30;53.70;;;;;;10327625;28;801;-74
2023/06/17 20:31:17;;;;;;;;;;;22.30;53.70;;;;;;10327210;28;996;-74
2023/06/17 20:36:12;;;;;;;;;;;22.30;53.60;;;;;;10326761;28;1901;-74
2023/06/17 20:41:08;;;;;;;;;;;22.30;53.50;;;;;;10326317;28;939;-74
2023/06/17 20:46:03;;;;;;;;;;;22.30;53.50;;;;;;10327674;28;824;-74
2023/06/17 20:50:58;;;;;;;;;;;22.40;53.40;;;;;;10327179;28;860;-74
2023/06/17 20:55:54;;;;;;;;;;;22.40;53.40;;;;;;10326139;28;1898;-75
2023/06/17 21:00:50;;;;;;;;;;;22.40;53.40;;;;;;10326208;28;901;-74
2023/06/17 21:05:45;;;;;;;;;;;22.40;53.50;;;;;;10326075;28;840;-74
2023/06/17 21:10:40;;;;;;;;;;;22.40;53.30;;;;;;10325429;28;864;-71
2023/06/17 21:15:36;;;;;;;;;;;22.30;53.70;;;;;;10326098;28;1898;-71
2023/06/17 21:20:31;;;;;;;;;;;22.20;53.00;;;;;;10326073;28;1314;-68
2023/06/17 21:25:29;;;;;;;;;;;22.10;52.30;;;;;;10325758;28;786;-69
2023/06/17 21:30:24;;;;;;;;;;;22.10;51.50;;;;;;10325486;28;785;-69
2023/06/17 21:35:20;;;;;;;;;;;22.00;51.70;;;;;;10325241;28;1977;-69
2023/06/17 21:40:15;;;;;;;;;;;21.90;51.40;;;;;;10326117;28;809;-68
2023/06/17 21:45:11;;;;;;;;;;;21.60;51.60;;;;;;10329191;28;884;-68
2023/06/17 21:50:06;;;;;;;;;;;21.60;51.60;;;;;;10332995;28;1023;-68
2023/06/17 21:55:01;;;;;;;;;;;21.20;51.90;;;;;;10333295;28;1948;-68
2023/06/17 21:59:57;;;;;;;;;;;21.20;52.70;;;;;;10334497;28;907;-68
2023/06/17 22:04:52;;;;;;;;;;;21.40;51.60;;;;;;10332418;28;1015;-69
2023/06/17 22:09:47;;;;;;;;;;;21.40;49.90;;;;;;10332736;28;816;-68
2023/06/17 22:14:43;;;;;;;;;;;21.30;50.10;;;;;;10333059;28;1894;-68
2023/06/17 22:19:38;;;;;;;;;;;21.20;50.50;;;;;;10331695;28;1383;-70
2023/06/17 22:24:34;;;;;;;;;;;21.30;50.90;;;;;;10332182;28;865;-71
2023/06/17 22:29:29;;;;;;;;;;;21.50;50.80;;;;;;10332062;28;762;-71
2023/06/17 22:34:25;;;;;;;;;;;21.60;51.00;;;;;;10331779;28;1965;-71
2023/06/17 22:39:20;;;;;;;;;;;21.70;51.00;;;;;;10332249;28;825;-71
2023/06/17 22:44:16;;;;;;;;;;;21.70;51.10;;;;;;10331544;28;763;-71
2023/06/17 22:49:11;;;;;;;;;;;21.80;51.20;;;;;;10331269;28;988;-72
2023/06/17 22:54:06;;;;;;;;;;;21.80;51.10;;;;;;10331685;28;1953;-71
2023/06/17 22:59:02;;;;;;;;;;;21.80;51.20;;;;;;10329592;28;888;-71
2023/06/17 23:03:57;;;;;;;;;;;21.90;51.30;;;;;;10330808;28;797;-71
2023/06/17 23:08:52;;;;;;;;;;;21.80;51.40;;;;;;10330524;28;942;-71
2023/06/17 23:13:48;;;;;;;;;;;21.90;51.40;;;;;;10330343;28;1898;-71
2023/06/17 23:18:43;;;;;;;;;;;21.90;51.30;;;;;;10330740;28;1398;-72
2023/06/17 23:23:39;;;;;;;;;;;21.90;51.40;;;;;;10330919;28;860;-71
2023/06/17 23:28:34;;;;;;;;;;;21.90;51.40;;;;;;10329859;28;991;-71
2023/06/17 23:33:29;;;;;;;;;;;21.90;51.50;;;;;;10329620;28;1909;-71
2023/06/17 23:38:27;;;;;;;;;;;21.90;51.50;;;;;;10329456;28;872;-71
2023/06/17 23:43:23;;;;;;;;;;;21.90;51.60;;;;;;10329238;28;812;-71
2023/06/17 23:48:18;;;;;;;;;;;21.90;51.40;;;;;;10328477;28;932;-71
2023/06/17 23:53:16;;;;;;;;;;;21.90;51.50;;;;;;10329374;28;1953;-71
2023/06/17 23:58:11;;;;;;;;;;;21.90;51.40;;;;;;10328592;28;925;-71
